GOGS

Details ICAO GOGS (CSK)
Name CAP SKIRING
Region Senegal
Timezone Africa/Dakar (UTC+0.0)
Plans Departing 1
Arriving 6
Stats Elevation 52 ft / 16 m (AMSL)
Location 12.393531° -16.746124°
Runways 1
Magnetic Variation 7.528° W
Sunrise 2018-05-27 06:42:15 UTC / 2018-05-27 06:42:15 Local
Sunset 2018-05-27 19:28:55 UTC / 2018-05-27 19:28:55 Local
Advertisement - Login to hide

Runways

ID Width Length Bearing (true) Bearing (mag) Surface Threshold Offset Overrun Length
15 98 ft / 30 m 4,766 ft / 1,453 m 135.55° 143.08° Asphalt 0 ft / 0 m 820 ft / 250 m
33 98 ft / 30 m 4,766 ft / 1,453 m 315.56° 323.09° Asphalt 0 ft / 0 m 0 ft / 0 m

Map

Weather


0- 5 10 15 20 25 30 35+ Temperature / ° C

Clouds and Precipitation
Forecast for 2018-05-27 12:00 UTC. Updated 5 hours ago

Ground ~20,000 ft ~40,000 ft Winds

METAR

GOGS 271600Z 32010KT 9999 SCT013 26/21 Q1011

TAF

TAF GOGS 271130Z 2712/2812 30010KT CAVOK

Frequencies

Tower 118.90 MHz TWR
Warning: Do not use this data for real-world aviation or navigation. No guarantee of current accuracy is given.